createdAt,value
2023-09-22T00:02:09.337Z,6.20
2023-09-22T00:05:03.162Z,6.60
2023-09-22T00:07:57.027Z,5.90
2023-09-22T00:10:34.682Z,6.00
2023-09-22T00:13:27.505Z,6.80
2023-09-22T00:16:20.286Z,6.30
2023-09-22T00:19:12.893Z,6.60
2023-09-22T00:22:06.447Z,6.40
2023-09-22T00:24:59.147Z,6.50
2023-09-22T00:27:45.755Z,6.00
2023-09-22T00:30:38.756Z,6.60
2023-09-22T00:33:33.957Z,6.40
2023-09-22T00:36:27.265Z,6.40
2023-09-22T00:39:21.581Z,5.80
2023-09-22T00:42:14.754Z,6.60
2023-09-22T00:45:03.836Z,6.20
2023-09-22T00:47:47.644Z,6.30
2023-09-22T00:50:40.493Z,6.20
2023-09-22T00:53:39.089Z,6.70
2023-09-22T00:56:31.313Z,7.90
2023-09-22T00:59:25.196Z,5.70
2023-09-22T01:02:18.019Z,6.80
2023-09-22T01:05:10.836Z,6.20
2023-09-22T01:08:02.700Z,7.20
2023-09-22T01:10:56.089Z,6.80
2023-09-22T01:13:49.419Z,6.60
2023-09-22T01:16:42.846Z,6.90
2023-09-22T01:19:37.348Z,6.80
2023-09-22T01:22:17.537Z,6.70
2023-09-22T01:25:03.872Z,7.30
2023-09-22T01:27:56.951Z,6.80
2023-09-22T01:30:50.485Z,7.30
2023-09-22T01:33:44.190Z,6.60
2023-09-22T01:36:37.334Z,7.50
2023-09-22T01:39:30.434Z,7.10
2023-09-22T01:42:23.226Z,7.00
2023-09-22T01:45:15.449Z,7.40
2023-09-22T01:48:10.146Z,7.70
2023-09-22T01:51:06.133Z,7.30
2023-09-22T01:53:58.834Z,6.90
2023-09-22T01:56:54.084Z,7.00
2023-09-22T01:59:48.171Z,7.50
2023-09-22T02:02:44.735Z,6.90
2023-09-22T02:05:38.163Z,6.50
2023-09-22T02:08:30.861Z,6.80
2023-09-22T02:11:23.569Z,6.40
2023-09-22T02:14:16.391Z,6.90
2023-09-22T02:16:55.962Z,6.80
2023-09-22T02:19:48.930Z,6.60
2023-09-22T02:22:45.004Z,6.70
2023-09-22T02:25:38.309Z,6.80
2023-09-22T02:28:24.350Z,7.00
2023-09-22T02:31:17.093Z,6.90
2023-09-22T02:34:11.311Z,6.60
2023-09-22T02:37:03.823Z,6.40
2023-09-22T02:39:53.466Z,6.40
2023-09-22T02:42:46.620Z,6.00
2023-09-22T02:45:42.589Z,6.30
2023-09-22T02:48:28.561Z,6.30
2023-09-22T02:51:21.417Z,6.70
2023-09-22T02:54:14.992Z,5.90
2023-09-22T02:57:08.112Z,5.60
2023-09-22T03:00:01.704Z,6.20
2023-09-22T03:02:55.500Z,5.90
2023-09-22T03:05:50.179Z,5.80
2023-09-22T03:08:28.551Z,6.10
2023-09-22T03:11:14.373Z,5.90
2023-09-22T03:14:06.241Z,6.10
2023-09-22T03:16:47.693Z,5.80
2023-09-22T03:19:42.025Z,6.10
2023-09-22T03:22:24.999Z,6.40
2023-09-22T03:25:04.019Z,5.90
2023-09-22T03:27:51.706Z,6.20
2023-09-22T03:30:44.394Z,6.40
2023-09-22T03:33:30.892Z,6.50
2023-09-22T03:36:23.661Z,6.60
2023-09-22T03:39:16.665Z,6.60
2023-09-22T03:42:09.247Z,6.30
2023-09-22T03:44:55.082Z,7.10
2023-09-22T03:47:49.191Z,7.00
2023-09-22T03:50:41.930Z,6.50
2023-09-22T03:53:20.731Z,7.00
2023-09-22T03:56:13.495Z,6.70
2023-09-22T03:59:06.546Z,6.60
2023-09-22T04:02:00.734Z,6.50
2023-09-22T04:04:44.306Z,6.90
2023-09-22T04:07:40.918Z,6.50
2023-09-22T04:10:26.031Z,6.70
2023-09-22T04:13:20.984Z,6.60
2023-09-22T04:16:06.548Z,6.30
2023-09-22T04:18:55.318Z,7.10
2023-09-22T04:21:32.841Z,6.20
2023-09-22T04:24:32.479Z,7.00
2023-09-22T04:27:29.827Z,6.60
2023-09-22T04:30:22.423Z,7.40
2023-09-22T04:33:15.119Z,7.20
2023-09-22T04:35:57.978Z,7.10
2023-09-22T04:38:51.133Z,7.00
2023-09-22T04:41:43.878Z,7.10
2023-09-22T04:44:37.826Z,7.10
2023-09-22T04:47:30.896Z,6.60
2023-09-22T04:50:24.283Z,6.70
2023-09-22T04:53:17.562Z,7.20
2023-09-22T04:56:10.869Z,6.80
2023-09-22T04:59:05.155Z,6.80
2023-09-22T05:01:58.987Z,6.50
2023-09-22T05:04:51.811Z,6.40
2023-09-22T05:07:44.891Z,6.90
2023-09-22T05:10:37.835Z,6.60
2023-09-22T05:13:30.670Z,7.10
2023-09-22T05:16:14.550Z,7.00
2023-09-22T05:18:51.969Z,8.40
2023-09-22T05:21:34.977Z,8.30
2023-09-22T05:24:28.383Z,7.40
2023-09-22T05:27:19.996Z,7.30
2023-09-22T05:30:16.211Z,7.10
2023-09-22T05:33:09.507Z,7.30
2023-09-22T05:36:02.619Z,7.10
2023-09-22T05:38:55.286Z,8.10
2023-09-22T05:41:52.129Z,7.70
2023-09-22T05:44:35.770Z,7.90
2023-09-22T05:47:31.156Z,7.70
2023-09-22T05:50:15.248Z,7.80
2023-09-22T05:53:11.643Z,7.60
2023-09-22T05:56:12.305Z,9.40
2023-09-22T05:58:59.511Z,9.30
2023-09-22T06:01:47.897Z,8.00
2023-09-22T06:04:33.661Z,8.90
2023-09-22T06:07:15.774Z,8.00
2023-09-22T06:09:58.628Z,8.80
2023-09-22T06:12:43.312Z,8.40
2023-09-22T06:15:37.375Z,8.70
2023-09-22T06:18:15.960Z,8.80
2023-09-22T06:20:51.311Z,8.40
2023-09-22T06:23:35.901Z,8.40
2023-09-22T06:26:17.919Z,8.10
2023-09-22T06:28:56.154Z,8.00
2023-09-22T06:31:38.046Z,7.80
2023-09-22T06:34:12.131Z,7.50
2023-09-22T06:36:55.221Z,7.60
2023-09-22T06:39:51.156Z,7.80
2023-09-22T06:42:35.597Z,8.00
2023-09-22T06:45:33.473Z,8.00
2023-09-22T06:48:28.140Z,7.00
2023-09-22T06:51:21.302Z,7.00
2023-09-22T06:54:07.108Z,6.90
2023-09-22T06:57:03.780Z,7.40
2023-09-22T06:59:52.440Z,6.60
2023-09-22T07:02:45.704Z,6.50
2023-09-22T07:05:39.463Z,5.90
2023-09-22T07:08:31.447Z,5.50
2023-09-22T07:11:24.268Z,5.40
2023-09-22T07:14:17.132Z,4.90
2023-09-22T07:17:02.760Z,4.70
2023-09-22T07:19:48.316Z,4.80
2023-09-22T07:22:42.624Z,4.70
2023-09-22T07:25:21.862Z,4.20
2023-09-22T07:28:04.594Z,5.50
2023-09-22T07:30:58.081Z,5.40
2023-09-22T07:33:51.371Z,5.30
2023-09-22T07:36:44.441Z,5.00
2023-09-22T07:39:37.864Z,5.50
2023-09-22T07:42:11.723Z,5.70
2023-09-22T07:44:55.674Z,5.40
2023-09-22T07:47:49.013Z,5.10
2023-09-22T07:50:31.035Z,4.50
2023-09-22T07:53:15.172Z,5.20
2023-09-22T07:55:53.484Z,5.40
2023-09-22T07:58:58.570Z,5.70
2023-09-22T08:01:45.748Z,5.70
2023-09-22T08:04:30.108Z,5.70
2023-09-22T08:07:12.080Z,5.70
2023-09-22T08:09:59.063Z,6.10
2023-09-22T08:12:35.785Z,5.70
2023-09-22T08:15:22.155Z,5.40
2023-09-22T08:18:17.219Z,5.60
2023-09-22T08:20:50.706Z,5.60
2023-09-22T08:23:37.761Z,5.50
2023-09-22T08:26:19.924Z,5.10
2023-09-22T08:28:54.683Z,5.20
2023-09-22T08:31:30.781Z,5.10
2023-09-22T08:34:23.717Z,5.00
2023-09-22T08:37:17.098Z,5.20
2023-09-22T08:40:17.171Z,4.60
2023-09-22T08:43:04.038Z,5.40
2023-09-22T08:45:38.526Z,5.30
2023-09-22T08:48:31.587Z,5.30
2023-09-22T08:51:15.778Z,5.00
2023-09-22T08:53:49.287Z,4.90
2023-09-22T08:56:24.529Z,4.50
2023-09-22T08:59:17.845Z,4.50
2023-09-22T09:01:51.277Z,4.70
2023-09-22T09:04:41.284Z,4.40
2023-09-22T09:10:06.748Z,4.50
2023-09-22T09:12:53.522Z,4.10
2023-09-22T09:15:28.430Z,4.10
2023-09-22T09:18:13.175Z,4.20
2023-09-22T09:20:49.986Z,3.50
2023-09-22T09:23:54.974Z,3.90
2023-09-22T09:26:38.614Z,3.80
2023-09-22T09:29:30.004Z,3.80
2023-09-22T09:32:04.450Z,3.80
2023-09-22T09:34:43.475Z,3.60
2023-09-22T09:37:27.839Z,4.00
2023-09-22T09:40:04.930Z,3.60
2023-09-22T09:42:44.073Z,3.60
2023-09-22T09:45:20.643Z,3.90
2023-09-22T09:47:57.095Z,4.30
2023-09-22T09:50:35.313Z,3.30
2023-09-22T09:53:15.985Z,3.60
2023-09-22T09:55:50.547Z,3.10
2023-09-22T09:58:25.279Z,3.60
2023-09-22T10:01:00.489Z,3.80
2023-09-22T10:03:33.234Z,3.30
2023-09-22T10:06:08.234Z,3.50
2023-09-22T10:08:43.748Z,3.10
2023-09-22T10:11:17.749Z,3.20
2023-09-22T10:13:50.685Z,3.70
2023-09-22T10:16:33.142Z,3.50
2023-09-22T10:19:07.153Z,3.30
2023-09-22T10:21:46.808Z,3.50
2023-09-22T10:24:25.891Z,3.40
2023-09-22T10:27:17.567Z,3.60
2023-09-22T10:29:55.800Z,3.40
2023-09-22T10:32:29.483Z,3.20
2023-09-22T10:35:10.622Z,3.50
2023-09-22T10:38:01.544Z,3.60
2023-09-22T10:40:34.612Z,3.40
2023-09-22T10:43:10.969Z,3.30
2023-09-22T10:45:44.161Z,4.40
2023-09-22T10:48:24.781Z,3.40
2023-09-22T10:50:59.996Z,3.20
2023-09-22T10:53:35.447Z,3.40
2023-09-22T10:56:08.109Z,3.80
2023-09-22T10:58:41.610Z,3.30
2023-09-22T11:01:15.197Z,3.40
2023-09-22T11:03:55.267Z,3.40
2023-09-22T11:06:28.731Z,3.40
2023-09-22T11:09:05.283Z,3.60
2023-09-22T11:11:38.000Z,3.70
2023-09-22T11:14:10.810Z,3.60
2023-09-22T11:16:51.536Z,3.30
2023-09-22T11:19:24.299Z,3.60
2023-09-22T11:22:02.880Z,3.60
2023-09-22T11:24:35.151Z,3.70
2023-09-22T11:27:08.612Z,3.60
2023-09-22T11:29:42.289Z,3.80
2023-09-22T11:32:18.947Z,3.20
2023-09-22T11:35:11.510Z,4.00
2023-09-22T11:37:46.625Z,4.10
2023-09-22T11:40:24.118Z,4.10
2023-09-22T11:42:57.032Z,4.20
2023-09-22T11:45:29.622Z,3.60
2023-09-22T11:48:11.651Z,3.70
2023-09-22T11:50:44.416Z,4.30
2023-09-22T11:53:21.750Z,3.60
2023-09-22T11:55:54.453Z,4.30
2023-09-22T11:58:26.912Z,4.00
2023-09-22T12:00:59.721Z,3.80
2023-09-22T12:03:34.557Z,3.50
2023-09-22T12:06:08.720Z,3.80
2023-09-22T12:08:41.626Z,3.80
2023-09-22T12:11:14.162Z,4.20
2023-09-22T12:13:48.428Z,3.70
2023-09-22T12:16:23.723Z,4.40
2023-09-22T12:18:56.595Z,4.00
2023-09-22T12:21:30.752Z,4.00
2023-09-22T12:24:03.748Z,4.20
2023-09-22T12:26:36.325Z,4.00
2023-09-22T12:29:11.274Z,4.00
2023-09-22T12:31:44.111Z,4.10
2023-09-22T12:34:18.882Z,3.90
2023-09-22T12:36:51.342Z,4.30
2023-09-22T12:39:23.754Z,4.50
2023-09-22T12:42:07.256Z,4.50
2023-09-22T12:45:00.118Z,4.10
2023-09-22T12:47:32.900Z,4.50
2023-09-22T12:50:09.755Z,4.70
2023-09-22T12:52:43.507Z,4.30
2023-09-22T12:55:16.710Z,4.30
2023-09-22T12:57:49.501Z,4.20
2023-09-22T13:00:22.098Z,3.90
2023-09-22T13:02:55.761Z,4.40
2023-09-22T13:05:28.649Z,4.40
2023-09-22T13:08:01.518Z,4.30
2023-09-22T13:10:34.123Z,4.60
2023-09-22T13:13:06.980Z,4.20
2023-09-22T13:15:45.563Z,5.20
2023-09-22T13:18:20.072Z,4.80
2023-09-22T13:20:52.652Z,4.60
2023-09-22T13:23:25.157Z,5.30
2023-09-22T13:25:59.729Z,4.80
2023-09-22T13:28:32.415Z,4.20
2023-09-22T13:31:08.562Z,4.30
2023-09-22T13:33:41.276Z,4.80
2023-09-22T13:36:20.000Z,4.90
2023-09-22T13:38:54.128Z,4.40
2023-09-22T13:41:26.672Z,4.70
2023-09-22T13:44:00.967Z,4.50
2023-09-22T13:46:34.061Z,4.60
2023-09-22T13:49:08.256Z,5.10
2023-09-22T13:51:44.849Z,4.80
2023-09-22T13:54:18.143Z,5.20
2023-09-22T13:56:51.722Z,4.70
2023-09-22T13:59:37.335Z,5.30
2023-09-22T14:02:12.711Z,4.80
2023-09-22T14:04:48.812Z,5.20
2023-09-22T14:07:21.741Z,5.10
2023-09-22T14:09:54.106Z,5.00
2023-09-22T14:12:28.458Z,5.70
2023-09-22T14:15:01.151Z,5.50
2023-09-22T14:17:34.632Z,5.10
2023-09-22T14:20:08.354Z,4.90
2023-09-22T14:22:41.132Z,4.80
2023-09-22T14:25:13.961Z,5.40
2023-09-22T14:27:46.598Z,4.80
2023-09-22T14:30:19.609Z,5.80
2023-09-22T14:32:53.818Z,5.20
2023-09-22T14:35:28.325Z,5.00
2023-09-22T14:38:02.239Z,5.20
2023-09-22T14:40:35.797Z,5.60
2023-09-22T14:43:08.494Z,5.00
2023-09-22T14:45:43.892Z,5.20
2023-09-22T14:48:32.953Z,5.00
2023-09-22T14:51:14.292Z,4.90
2023-09-22T14:53:47.398Z,5.50
2023-09-22T14:56:31.349Z,5.10
2023-09-22T14:59:09.014Z,5.60
2023-09-22T15:01:43.488Z,4.50
2023-09-22T15:04:18.471Z,4.50
2023-09-22T15:06:59.092Z,5.10
2023-09-22T15:09:41.567Z,5.10
2023-09-22T15:12:14.314Z,5.30
2023-09-22T15:14:46.863Z,5.10
2023-09-22T15:17:40.073Z,5.10
2023-09-22T15:20:15.163Z,5.00
2023-09-22T15:22:48.087Z,5.80
2023-09-22T15:25:20.717Z,5.50
2023-09-22T15:27:54.902Z,5.40
2023-09-22T15:30:27.596Z,5.40
2023-09-22T15:33:00.578Z,5.40
2023-09-22T15:35:44.478Z,5.70
2023-09-22T15:38:18.410Z,6.20
2023-09-22T15:41:03.281Z,5.50
2023-09-22T15:43:37.200Z,6.30
2023-09-22T15:46:11.270Z,5.50
2023-09-22T15:48:48.087Z,5.50
2023-09-22T15:51:20.970Z,5.40
2023-09-22T15:54:14.636Z,5.40
2023-09-22T15:57:03.256Z,6.10
2023-09-22T15:59:38.364Z,5.90
2023-09-22T16:02:10.831Z,5.60
2023-09-22T16:04:46.090Z,6.10
2023-09-22T16:07:30.607Z,6.50
2023-09-22T16:10:03.390Z,5.60
2023-09-22T16:12:46.157Z,6.30
2023-09-22T16:15:18.785Z,6.00
2023-09-22T16:17:51.673Z,6.10
2023-09-22T16:20:27.651Z,7.70
2023-09-22T16:23:00.089Z,6.70
2023-09-22T16:25:35.303Z,6.10
2023-09-22T16:28:13.271Z,6.70
2023-09-22T16:30:49.020Z,6.80
2023-09-22T16:33:24.783Z,7.40
2023-09-22T16:36:01.326Z,7.00
2023-09-22T16:38:54.229Z,7.50
2023-09-22T16:41:26.751Z,7.00
2023-09-22T16:43:59.329Z,7.40
2023-09-22T16:46:31.924Z,6.40
2023-09-22T16:49:16.972Z,6.20
2023-09-22T16:51:49.255Z,6.00
2023-09-22T16:54:32.366Z,5.80
2023-09-22T16:57:16.541Z,5.10
2023-09-22T16:59:59.181Z,5.70
2023-09-22T17:02:47.098Z,6.50
2023-09-22T17:05:25.290Z,6.40
2023-09-22T17:08:01.055Z,7.20
2023-09-22T17:10:44.606Z,6.90
2023-09-22T17:16:11.720Z,6.10
2023-09-22T17:18:56.966Z,6.00
2023-09-22T17:21:35.390Z,6.60
2023-09-22T17:24:08.774Z,6.20
2023-09-22T17:27:02.022Z,5.70
2023-09-22T17:29:55.117Z,6.30
2023-09-22T17:32:47.823Z,5.90
2023-09-22T17:35:22.713Z,6.10
2023-09-22T17:38:04.534Z,6.80
2023-09-22T17:40:57.645Z,7.20
2023-09-22T17:43:50.567Z,7.50
2023-09-22T17:46:43.251Z,7.60
2023-09-22T17:49:28.057Z,8.10
2023-09-22T17:52:21.000Z,7.20
2023-09-22T17:55:04.229Z,7.40
2023-09-22T17:57:47.988Z,6.80
2023-09-22T18:00:41.165Z,6.40
2023-09-22T18:03:33.859Z,6.90
2023-09-22T18:06:11.469Z,7.20
2023-09-22T18:09:06.992Z,6.90
2023-09-22T18:12:00.704Z,7.70
2023-09-22T18:14:54.919Z,7.30
2023-09-22T18:17:32.302Z,7.90
2023-09-22T18:20:18.009Z,7.20
2023-09-22T18:23:02.254Z,7.50
2023-09-22T18:26:04.817Z,7.50
2023-09-22T18:28:53.529Z,6.90
2023-09-22T18:31:46.364Z,7.60
2023-09-22T18:34:44.565Z,7.70
2023-09-22T18:37:27.521Z,7.10
2023-09-22T18:40:00.559Z,7.80
2023-09-22T18:42:49.366Z,8.80
2023-09-22T18:45:31.956Z,8.50
2023-09-22T18:48:25.076Z,9.00
2023-09-22T18:51:08.209Z,8.70
2023-09-22T18:53:49.861Z,8.70
2023-09-22T18:56:22.524Z,8.10
2023-09-22T18:59:16.736Z,7.80
2023-09-22T19:01:54.235Z,7.70
2023-09-22T19:04:26.835Z,7.30
2023-09-22T19:07:19.835Z,7.40
2023-09-22T19:10:02.573Z,7.00
2023-09-22T19:12:46.074Z,7.30
2023-09-22T19:15:30.425Z,7.50
2023-09-22T19:18:07.606Z,7.20
2023-09-22T19:20:40.393Z,7.30
2023-09-22T19:23:33.978Z,8.00
2023-09-22T19:26:13.230Z,8.40
2023-09-22T19:29:06.123Z,7.90
2023-09-22T19:31:42.364Z,6.90
2023-09-22T19:34:17.534Z,6.90
2023-09-22T19:37:10.544Z,6.10
2023-09-22T19:40:05.052Z,6.60
2023-09-22T19:42:50.791Z,6.50
2023-09-22T19:45:43.800Z,6.50
2023-09-22T19:48:18.701Z,6.80
2023-09-22T19:51:04.264Z,7.70
2023-09-22T19:53:56.913Z,8.30
2023-09-22T19:56:31.884Z,7.20
2023-09-22T19:59:25.811Z,6.40
2023-09-22T20:01:59.596Z,6.00
2023-09-22T20:04:32.571Z,7.40
2023-09-22T20:07:07.549Z,7.10
2023-09-22T20:09:52.400Z,8.00
2023-09-22T20:12:38.323Z,8.10
2023-09-22T20:15:13.305Z,8.60
2023-09-22T20:17:46.272Z,8.40
2023-09-22T20:20:22.583Z,7.90
2023-09-22T20:22:55.403Z,7.30
2023-09-22T20:25:30.447Z,7.70
2023-09-22T20:28:03.289Z,6.70
2023-09-22T20:30:35.767Z,7.50
2023-09-22T20:33:10.448Z,8.30
2023-09-22T20:35:43.126Z,8.00
2023-09-22T20:38:31.075Z,8.70
2023-09-22T20:41:13.621Z,7.90
2023-09-22T20:43:57.105Z,8.80
2023-09-22T20:46:33.460Z,8.30
2023-09-22T20:49:28.824Z,8.60
2023-09-22T20:52:21.959Z,8.70
2023-09-22T20:55:15.139Z,8.80
2023-09-22T20:57:56.707Z,8.40
2023-09-22T21:00:32.120Z,8.70
2023-09-22T21:03:25.219Z,9.10
2023-09-22T21:06:08.229Z,8.90
2023-09-22T21:09:04.910Z,9.00
2023-09-22T21:11:57.995Z,9.30
2023-09-22T21:14:41.276Z,8.50
2023-09-22T21:17:27.667Z,8.70
2023-09-22T21:20:20.557Z,8.70
2023-09-22T21:22:55.451Z,9.40
2023-09-22T21:25:42.729Z,8.80
2023-09-22T21:28:28.830Z,9.00
2023-09-22T21:31:15.113Z,9.40
2023-09-22T21:34:08.075Z,8.30
2023-09-22T21:37:01.345Z,9.00
2023-09-22T21:39:54.176Z,9.20
2023-09-22T21:42:26.724Z,9.00
2023-09-22T21:45:19.894Z,8.50
2023-09-22T21:47:55.821Z,8.80
2023-09-22T21:50:28.731Z,8.20
2023-09-22T21:53:02.993Z,14.60
2023-09-22T21:55:44.368Z,8.80
2023-09-22T21:58:37.256Z,8.40
2023-09-22T22:01:11.705Z,8.90
2023-09-22T22:04:04.816Z,8.20
2023-09-22T22:07:01.821Z,7.70
2023-09-22T22:09:34.609Z,8.40
2023-09-22T22:12:28.137Z,8.30
2023-09-22T22:15:09.712Z,7.20
2023-09-22T22:18:02.375Z,7.10
2023-09-22T22:20:57.877Z,7.00
2023-09-22T22:23:42.737Z,8.10
2023-09-22T22:26:30.501Z,7.20
2023-09-22T22:29:22.135Z,7.80
2023-09-22T22:32:09.930Z,7.10
2023-09-22T22:35:04.641Z,7.20
2023-09-22T22:37:57.477Z,8.40
2023-09-22T22:40:33.508Z,7.10
2023-09-22T22:43:26.139Z,7.80
2023-09-22T22:46:19.182Z,8.40
2023-09-22T22:49:12.062Z,9.50
2023-09-22T22:52:05.039Z,7.80
2023-09-22T22:54:57.827Z,8.60
2023-09-22T22:57:40.681Z,8.80
2023-09-22T23:00:38.828Z,9.30
2023-09-22T23:03:31.938Z,8.40
2023-09-22T23:06:25.342Z,8.60
2023-09-22T23:09:06.013Z,8.20
2023-09-22T23:12:01.904Z,8.80
2023-09-22T23:14:55.014Z,8.80
2023-09-22T23:17:30.989Z,9.60
2023-09-22T23:20:35.052Z,9.20
2023-09-22T23:23:10.354Z,9.00
2023-09-22T23:26:07.352Z,8.10
2023-09-22T23:29:02.209Z,8.00
2023-09-22T23:31:55.898Z,7.40
2023-09-22T23:34:31.273Z,7.20
2023-09-22T23:37:24.038Z,6.60
2023-09-22T23:40:02.665Z,7.10
2023-09-22T23:42:48.337Z,7.20
2023-09-22T23:45:46.477Z,6.10
2023-09-22T23:48:24.124Z,5.60
2023-09-22T23:51:09.825Z,5.30
2023-09-22T23:53:58.099Z,5.50
2023-09-22T23:56:46.594Z,5.60
2023-09-22T23:59:35.934Z,5.40
